Lucia, California
Current Conditions -  °F | °C
As of 4:54 PM on Saturday 25 Oct 2014 (Local Time) from KMRY Reporting Station
Scattered Clouds Scattered Clouds  
Wind Chill: 69°   Ceiling: Unl
Heat Index: 69°   Visibility: 10mi
Dew Point: 53°   Wind: 6mph
Humidity: 57%   Direction: 250°WSW
Pressure: 30.09"   Gusts: NA
Location:  36.2518°N, 121.704°W
Report Text: KMRY 252354Z 25005KT 10SM SCT032 21/12 A3009 RMK AO2 SLP201 T02060117 10211 20172 56005
Loading
Personal Weather Stations






























Interactive Weather Map
Tropical Storm Tracking
New forecast layout! Learn more

10-Day Weather Forecast

Advertisements
Track Severe Weather on mobile